sensor_id;sensor_type;location;lat;lon;timestamp;temperature;humidity
25716;DHT22;13573;50.936;4.328;2023-06-22T00:00:54;21.20;99.90
25716;DHT22;13573;50.936;4.328;2023-06-22T00:03:22;21.10;99.90
25716;DHT22;13573;50.936;4.328;2023-06-22T00:05:50;21.10;99.90
25716;DHT22;13573;50.936;4.328;2023-06-22T00:08:18;21.30;99.90
25716;DHT22;13573;50.936;4.328;2023-06-22T00:10:45;21.20;99.90
25716;DHT22;13573;50.936;4.328;2023-06-22T00:13:13;21.10;99.90
25716;DHT22;13573;50.936;4.328;2023-06-22T00:15:41;21.20;99.90
25716;DHT22;13573;50.936;4.328;2023-06-22T00:18:09;21.30;99.90
25716;DHT22;13573;50.936;4.328;2023-06-22T00:20:36;21.40;99.90
25716;DHT22;13573;50.936;4.328;2023-06-22T00:23:05;21.40;99.90
25716;DHT22;13573;50.936;4.328;2023-06-22T00:25:36;21.30;99.90
25716;DHT22;13573;50.936;4.328;2023-06-22T00:28:04;21.30;99.90
25716;DHT22;13573;50.936;4.328;2023-06-22T00:30:31;21.20;99.90
25716;DHT22;13573;50.936;4.328;2023-06-22T00:32:58;21.40;99.90
25716;DHT22;13573;50.936;4.328;2023-06-22T00:35:25;21.40;99.90
25716;DHT22;13573;50.936;4.328;2023-06-22T00:37:57;21.70;99.90
25716;DHT22;13573;50.936;4.328;2023-06-22T00:40:28;21.40;99.90
25716;DHT22;13573;50.936;4.328;2023-06-22T00:42:55;21.30;99.90
25716;DHT22;13573;50.936;4.328;2023-06-22T00:45:23;21.10;99.90
25716;DHT22;13573;50.936;4.328;2023-06-22T00:47:52;21.20;99.90
25716;DHT22;13573;50.936;4.328;2023-06-22T00:50:21;21.30;99.90
25716;DHT22;13573;50.936;4.328;2023-06-22T00:52:52;21.00;99.90
25716;DHT22;13573;50.936;4.328;2023-06-22T00:55:20;21.00;99.90
25716;DHT22;13573;50.936;4.328;2023-06-22T00:57:48;20.90;99.90
25716;DHT22;13573;50.936;4.328;2023-06-22T01:00:15;20.80;99.90
25716;DHT22;13573;50.936;4.328;2023-06-22T01:02:44;20.80;99.90
25716;DHT22;13573;50.936;4.328;2023-06-22T01:05:16;20.60;99.90
25716;DHT22;13573;50.936;4.328;2023-06-22T01:10:45;20.60;99.90
25716;DHT22;13573;50.936;4.328;2023-06-22T01:13:21;20.70;99.90
25716;DHT22;13573;50.936;4.328;2023-06-22T01:15:51;20.70;99.90
25716;DHT22;13573;50.936;4.328;2023-06-22T01:18:19;20.70;99.90
25716;DHT22;13573;50.936;4.328;2023-06-22T01:20:50;20.60;99.90
25716;DHT22;13573;50.936;4.328;2023-06-22T01:23:24;20.60;99.90
25716;DHT22;13573;50.936;4.328;2023-06-22T01:25:59;20.60;99.90
25716;DHT22;13573;50.936;4.328;2023-06-22T01:31:04;20.60;99.90
25716;DHT22;13573;50.936;4.328;2023-06-22T01:33:35;20.60;99.90
25716;DHT22;13573;50.936;4.328;2023-06-22T01:36:03;20.60;99.90
25716;DHT22;13573;50.936;4.328;2023-06-22T01:38:31;20.80;99.90
25716;DHT22;13573;50.936;4.328;2023-06-22T01:41:00;21.00;99.90
25716;DHT22;13573;50.936;4.328;2023-06-22T01:43:28;20.80;99.90
25716;DHT22;13573;50.936;4.328;2023-06-22T01:45:56;20.80;99.90
25716;DHT22;13573;50.936;4.328;2023-06-22T01:48:23;20.80;99.90
25716;DHT22;13573;50.936;4.328;2023-06-22T01:50:52;21.20;99.90
25716;DHT22;13573;50.936;4.328;2023-06-22T01:53:21;21.20;99.90
25716;DHT22;13573;50.936;4.328;2023-06-22T01:55:48;20.90;99.90
25716;DHT22;13573;50.936;4.328;2023-06-22T01:58:15;20.70;99.90
25716;DHT22;13573;50.936;4.328;2023-06-22T02:00:48;20.60;99.90
25716;DHT22;13573;50.936;4.328;2023-06-22T02:03:18;20.70;99.90
25716;DHT22;13573;50.936;4.328;2023-06-22T02:05:49;20.40;99.90
25716;DHT22;13573;50.936;4.328;2023-06-22T02:08:23;20.50;99.90
25716;DHT22;13573;50.936;4.328;2023-06-22T02:10:51;20.40;99.90
25716;DHT22;13573;50.936;4.328;2023-06-22T02:13:19;20.50;99.90
25716;DHT22;13573;50.936;4.328;2023-06-22T02:15:47;20.30;99.90
25716;DHT22;13573;50.936;4.328;2023-06-22T02:18:14;20.50;99.90
25716;DHT22;13573;50.936;4.328;2023-06-22T02:20:41;20.50;99.90
25716;DHT22;13573;50.936;4.328;2023-06-22T02:23:08;20.40;99.90
25716;DHT22;13573;50.936;4.328;2023-06-22T02:25:35;20.30;99.90
25716;DHT22;13573;50.936;4.328;2023-06-22T02:28:02;20.20;99.90
25716;DHT22;13573;50.936;4.328;2023-06-22T02:30:28;20.10;99.90
25716;DHT22;13573;50.936;4.328;2023-06-22T02:32:55;20.20;99.90
25716;DHT22;13573;50.936;4.328;2023-06-22T02:35:27;20.30;99.90
25716;DHT22;13573;50.936;4.328;2023-06-22T02:37:59;20.10;99.90
25716;DHT22;13573;50.936;4.328;2023-06-22T02:40:26;20.10;99.90
25716;DHT22;13573;50.936;4.328;2023-06-22T02:42:53;20.10;99.90
25716;DHT22;13573;50.936;4.328;2023-06-22T02:45:20;19.90;99.90
25716;DHT22;13573;50.936;4.328;2023-06-22T02:47:46;19.90;99.90
25716;DHT22;13573;50.936;4.328;2023-06-22T02:50:13;20.00;99.90
25716;DHT22;13573;50.936;4.328;2023-06-22T02:52:40;20.50;99.90
25716;DHT22;13573;50.936;4.328;2023-06-22T02:55:07;20.60;99.90
25716;DHT22;13573;50.936;4.328;2023-06-22T02:57:34;20.10;99.90
25716;DHT22;13573;50.936;4.328;2023-06-22T03:00:03;20.10;99.90
25716;DHT22;13573;50.936;4.328;2023-06-22T03:02:33;20.00;99.90
25716;DHT22;13573;50.936;4.328;2023-06-22T03:04:59;20.10;99.90
25716;DHT22;13573;50.936;4.328;2023-06-22T03:07:27;20.20;99.90
25716;DHT22;13573;50.936;4.328;2023-06-22T03:09:55;20.00;99.90
25716;DHT22;13573;50.936;4.328;2023-06-22T03:12:22;20.10;99.90
25716;DHT22;13573;50.936;4.328;2023-06-22T03:14:48;20.20;99.90
25716;DHT22;13573;50.936;4.328;2023-06-22T03:17:15;20.20;99.90
25716;DHT22;13573;50.936;4.328;2023-06-22T03:19:42;20.20;99.90
25716;DHT22;13573;50.936;4.328;2023-06-22T03:22:08;20.20;99.90
25716;DHT22;13573;50.936;4.328;2023-06-22T03:24:35;20.40;99.90
25716;DHT22;13573;50.936;4.328;2023-06-22T03:27:03;20.00;99.90
25716;DHT22;13573;50.936;4.328;2023-06-22T03:29:31;20.20;99.90
25716;DHT22;13573;50.936;4.328;2023-06-22T03:31:58;20.50;99.90
25716;DHT22;13573;50.936;4.328;2023-06-22T03:34:25;19.90;99.90
25716;DHT22;13573;50.936;4.328;2023-06-22T03:36:51;20.10;99.90
25716;DHT22;13573;50.936;4.328;2023-06-22T03:39:18;20.20;99.90
25716;DHT22;13573;50.936;4.328;2023-06-22T03:41:46;19.60;99.90
25716;DHT22;13573;50.936;4.328;2023-06-22T03:44:12;20.10;99.90
25716;DHT22;13573;50.936;4.328;2023-06-22T03:46:39;20.20;99.90
25716;DHT22;13573;50.936;4.328;2023-06-22T03:49:06;20.40;99.90
25716;DHT22;13573;50.936;4.328;2023-06-22T03:51:33;20.10;99.90
25716;DHT22;13573;50.936;4.328;2023-06-22T03:53:59;20.10;99.90
25716;DHT22;13573;50.936;4.328;2023-06-22T03:56:26;20.20;99.90
25716;DHT22;13573;50.936;4.328;2023-06-22T03:58:53;20.30;99.90
25716;DHT22;13573;50.936;4.328;2023-06-22T04:01:19;20.30;99.90
25716;DHT22;13573;50.936;4.328;2023-06-22T04:03:46;20.10;99.90
25716;DHT22;13573;50.936;4.328;2023-06-22T04:06:15;20.30;99.90
25716;DHT22;13573;50.936;4.328;2023-06-22T04:08:41;20.30;99.90
25716;DHT22;13573;50.936;4.328;2023-06-22T04:11:08;20.20;99.90
25716;DHT22;13573;50.936;4.328;2023-06-22T04:13:35;19.80;99.90
25716;DHT22;13573;50.936;4.328;2023-06-22T04:16:01;20.30;99.90
25716;DHT22;13573;50.936;4.328;2023-06-22T04:18:28;20.30;99.90
25716;DHT22;13573;50.936;4.328;2023-06-22T04:20:55;20.40;99.90
25716;DHT22;13573;50.936;4.328;2023-06-22T04:23:21;20.30;99.90
25716;DHT22;13573;50.936;4.328;2023-06-22T04:25:48;20.20;99.90
25716;DHT22;13573;50.936;4.328;2023-06-22T04:28:14;20.40;99.90
25716;DHT22;13573;50.936;4.328;2023-06-22T04:30:41;20.30;99.90
25716;DHT22;13573;50.936;4.328;2023-06-22T04:33:10;20.20;99.90
25716;DHT22;13573;50.936;4.328;2023-06-22T04:35:36;20.20;99.90
25716;DHT22;13573;50.936;4.328;2023-06-22T04:38:05;20.40;99.90
25716;DHT22;13573;50.936;4.328;2023-06-22T04:40:31;20.50;99.90
25716;DHT22;13573;50.936;4.328;2023-06-22T04:42:58;20.40;99.90
25716;DHT22;13573;50.936;4.328;2023-06-22T04:45:27;20.60;99.90
25716;DHT22;13573;50.936;4.328;2023-06-22T04:47:53;20.60;99.90
25716;DHT22;13573;50.936;4.328;2023-06-22T04:50:20;20.50;99.90
25716;DHT22;13573;50.936;4.328;2023-06-22T04:52:48;20.90;99.90
25716;DHT22;13573;50.936;4.328;2023-06-22T04:55:15;20.90;99.90
25716;DHT22;13573;50.936;4.328;2023-06-22T04:57:47;20.80;99.90
25716;DHT22;13573;50.936;4.328;2023-06-22T05:00:17;20.90;99.90
25716;DHT22;13573;50.936;4.328;2023-06-22T05:02:46;20.90;99.90
25716;DHT22;13573;50.936;4.328;2023-06-22T05:05:13;21.00;99.90
25716;DHT22;13573;50.936;4.328;2023-06-22T05:07:44;21.40;99.90
25716;DHT22;13573;50.936;4.328;2023-06-22T05:10:13;21.40;99.90
25716;DHT22;13573;50.936;4.328;2023-06-22T05:12:41;21.50;99.90
25716;DHT22;13573;50.936;4.328;2023-06-22T05:15:08;21.60;99.90
25716;DHT22;13573;50.936;4.328;2023-06-22T05:17:36;21.70;99.90
25716;DHT22;13573;50.936;4.328;2023-06-22T05:20:06;21.70;99.90
25716;DHT22;13573;50.936;4.328;2023-06-22T05:22:32;22.00;99.90
25716;DHT22;13573;50.936;4.328;2023-06-22T05:24:59;22.00;99.90
25716;DHT22;13573;50.936;4.328;2023-06-22T05:27:26;22.00;99.90
25716;DHT22;13573;50.936;4.328;2023-06-22T05:29:52;20.20;99.90
25716;DHT22;13573;50.936;4.328;2023-06-22T05:32:19;21.80;99.90
25716;DHT22;13573;50.936;4.328;2023-06-22T05:34:46;21.90;99.90
25716;DHT22;13573;50.936;4.328;2023-06-22T05:37:13;21.90;99.90
25716;DHT22;13573;50.936;4.328;2023-06-22T05:39:39;22.10;99.90
25716;DHT22;13573;50.936;4.328;2023-06-22T05:42:07;22.10;99.90
25716;DHT22;13573;50.936;4.328;2023-06-22T05:44:34;22.10;99.90
25716;DHT22;13573;50.936;4.328;2023-06-22T05:47:01;21.90;99.90
25716;DHT22;13573;50.936;4.328;2023-06-22T05:49:28;22.10;99.90
25716;DHT22;13573;50.936;4.328;2023-06-22T05:51:57;22.20;99.90
25716;DHT22;13573;50.936;4.328;2023-06-22T05:54:24;22.00;99.90
25716;DHT22;13573;50.936;4.328;2023-06-22T05:56:50;21.60;99.90
25716;DHT22;13573;50.936;4.328;2023-06-22T05:59:17;21.90;99.90
25716;DHT22;13573;50.936;4.328;2023-06-22T06:01:44;22.10;99.90
25716;DHT22;13573;50.936;4.328;2023-06-22T06:04:10;22.30;99.90
25716;DHT22;13573;50.936;4.328;2023-06-22T06:06:37;22.40;99.90
25716;DHT22;13573;50.936;4.328;2023-06-22T06:09:04;22.50;99.90
25716;DHT22;13573;50.936;4.328;2023-06-22T06:11:31;22.80;99.90
25716;DHT22;13573;50.936;4.328;2023-06-22T06:13:57;22.90;99.90
25716;DHT22;13573;50.936;4.328;2023-06-22T06:16:24;23.20;99.90
25716;DHT22;13573;50.936;4.328;2023-06-22T06:18:51;23.00;99.90
25716;DHT22;13573;50.936;4.328;2023-06-22T06:21:19;23.30;99.90
25716;DHT22;13573;50.936;4.328;2023-06-22T06:23:46;23.30;99.90
25716;DHT22;13573;50.936;4.328;2023-06-22T06:26:13;23.30;99.90
25716;DHT22;13573;50.936;4.328;2023-06-22T06:28:42;23.20;99.90
25716;DHT22;13573;50.936;4.328;2023-06-22T06:31:10;23.30;99.90
25716;DHT22;13573;50.936;4.328;2023-06-22T06:33:38;23.20;99.90
25716;DHT22;13573;50.936;4.328;2023-06-22T06:36:04;23.10;99.90
25716;DHT22;13573;50.936;4.328;2023-06-22T06:38:31;23.20;99.90
25716;DHT22;13573;50.936;4.328;2023-06-22T06:40:58;23.40;99.90
25716;DHT22;13573;50.936;4.328;2023-06-22T06:43:25;23.40;99.90
25716;DHT22;13573;50.936;4.328;2023-06-22T06:45:52;23.70;99.90
25716;DHT22;13573;50.936;4.328;2023-06-22T06:48:19;23.70;99.90
25716;DHT22;13573;50.936;4.328;2023-06-22T06:50:46;23.70;99.90
25716;DHT22;13573;50.936;4.328;2023-06-22T06:53:13;23.60;99.90
25716;DHT22;13573;50.936;4.328;2023-06-22T06:55:39;24.80;99.90
25716;DHT22;13573;50.936;4.328;2023-06-22T06:58:06;24.00;99.90
25716;DHT22;13573;50.936;4.328;2023-06-22T07:00:35;24.00;99.90
25716;DHT22;13573;50.936;4.328;2023-06-22T07:03:02;24.10;99.90
25716;DHT22;13573;50.936;4.328;2023-06-22T07:05:28;24.20;99.90
25716;DHT22;13573;50.936;4.328;2023-06-22T07:07:55;24.70;99.90
25716;DHT22;13573;50.936;4.328;2023-06-22T07:10:21;24.80;99.90
25716;DHT22;13573;50.936;4.328;2023-06-22T07:12:48;24.80;99.90
25716;DHT22;13573;50.936;4.328;2023-06-22T07:15:15;24.90;99.90
25716;DHT22;13573;50.936;4.328;2023-06-22T07:17:41;24.50;99.90
25716;DHT22;13573;50.936;4.328;2023-06-22T07:20:10;24.80;99.90
25716;DHT22;13573;50.936;4.328;2023-06-22T07:22:40;24.70;99.90
25716;DHT22;13573;50.936;4.328;2023-06-22T07:25:07;24.90;99.90
25716;DHT22;13573;50.936;4.328;2023-06-22T07:27:37;24.90;99.90
25716;DHT22;13573;50.936;4.328;2023-06-22T07:30:05;24.90;99.90
25716;DHT22;13573;50.936;4.328;2023-06-22T07:32:32;25.00;99.90
25716;DHT22;13573;50.936;4.328;2023-06-22T07:34:59;25.10;99.90
25716;DHT22;13573;50.936;4.328;2023-06-22T07:37:25;25.10;99.90
25716;DHT22;13573;50.936;4.328;2023-06-22T07:39:54;25.80;99.90
25716;DHT22;13573;50.936;4.328;2023-06-22T07:42:23;25.00;99.90
25716;DHT22;13573;50.936;4.328;2023-06-22T07:44:50;25.00;99.90
25716;DHT22;13573;50.936;4.328;2023-06-22T07:47:17;25.30;99.90
25716;DHT22;13573;50.936;4.328;2023-06-22T07:49:46;24.60;99.90
25716;DHT22;13573;50.936;4.328;2023-06-22T07:52:14;24.60;99.90
25716;DHT22;13573;50.936;4.328;2023-06-22T07:54:45;24.50;99.90
25716;DHT22;13573;50.936;4.328;2023-06-22T07:57:11;24.60;99.90
25716;DHT22;13573;50.936;4.328;2023-06-22T07:59:38;24.30;99.90
25716;DHT22;13573;50.936;4.328;2023-06-22T08:02:05;24.40;99.90
25716;DHT22;13573;50.936;4.328;2023-06-22T08:04:32;25.00;99.90
25716;DHT22;13573;50.936;4.328;2023-06-22T08:07:01;24.90;99.90
25716;DHT22;13573;50.936;4.328;2023-06-22T08:09:29;25.20;99.90
25716;DHT22;13573;50.936;4.328;2023-06-22T08:11:56;25.60;99.90
25716;DHT22;13573;50.936;4.328;2023-06-22T08:14:25;25.20;99.90
25716;DHT22;13573;50.936;4.328;2023-06-22T08:16:53;25.30;99.90
25716;DHT22;13573;50.936;4.328;2023-06-22T08:19:23;25.10;99.90
25716;DHT22;13573;50.936;4.328;2023-06-22T08:21:50;25.20;99.90
25716;DHT22;13573;50.936;4.328;2023-06-22T08:24:17;24.90;99.90
25716;DHT22;13573;50.936;4.328;2023-06-22T08:26:43;25.00;99.90
25716;DHT22;13573;50.936;4.328;2023-06-22T08:29:10;24.80;99.90
25716;DHT22;13573;50.936;4.328;2023-06-22T08:31:37;25.10;99.90
25716;DHT22;13573;50.936;4.328;2023-06-22T08:34:04;25.20;99.90
25716;DHT22;13573;50.936;4.328;2023-06-22T08:36:30;24.90;99.90
25716;DHT22;13573;50.936;4.328;2023-06-22T08:38:59;24.80;99.90
25716;DHT22;13573;50.936;4.328;2023-06-22T08:41:27;24.90;99.90
25716;DHT22;13573;50.936;4.328;2023-06-22T08:43:54;24.80;99.90
25716;DHT22;13573;50.936;4.328;2023-06-22T08:46:20;24.90;99.90
25716;DHT22;13573;50.936;4.328;2023-06-22T08:48:49;24.90;99.90
25716;DHT22;13573;50.936;4.328;2023-06-22T08:51:16;24.80;99.90
25716;DHT22;13573;50.936;4.328;2023-06-22T08:53:43;24.80;99.90
25716;DHT22;13573;50.936;4.328;2023-06-22T08:56:11;24.70;99.90
25716;DHT22;13573;50.936;4.328;2023-06-22T08:58:37;24.30;99.90
25716;DHT22;13573;50.936;4.328;2023-06-22T09:01:04;24.40;99.90
25716;DHT22;13573;50.936;4.328;2023-06-22T09:03:30;24.40;99.90
25716;DHT22;13573;50.936;4.328;2023-06-22T09:05:59;24.40;99.90
25716;DHT22;13573;50.936;4.328;2023-06-22T09:08:25;24.40;99.90
25716;DHT22;13573;50.936;4.328;2023-06-22T09:10:52;24.50;99.90
25716;DHT22;13573;50.936;4.328;2023-06-22T09:13:19;24.50;99.90
25716;DHT22;13573;50.936;4.328;2023-06-22T09:15:48;24.50;99.90
25716;DHT22;13573;50.936;4.328;2023-06-22T09:18:14;24.60;99.90
25716;DHT22;13573;50.936;4.328;2023-06-22T09:20:41;24.50;99.90
25716;DHT22;13573;50.936;4.328;2023-06-22T09:23:08;24.30;99.90
25716;DHT22;13573;50.936;4.328;2023-06-22T09:25:34;24.10;99.90
25716;DHT22;13573;50.936;4.328;2023-06-22T09:28:01;24.00;99.90
25716;DHT22;13573;50.936;4.328;2023-06-22T09:30:27;23.90;99.90
25716;DHT22;13573;50.936;4.328;2023-06-22T09:32:54;24.10;99.90
25716;DHT22;13573;50.936;4.328;2023-06-22T09:35:21;24.60;99.90
25716;DHT22;13573;50.936;4.328;2023-06-22T09:37:47;24.40;99.90
25716;DHT22;13573;50.936;4.328;2023-06-22T09:40:15;24.50;99.90
25716;DHT22;13573;50.936;4.328;2023-06-22T09:42:42;24.60;99.90
25716;DHT22;13573;50.936;4.328;2023-06-22T09:45:10;24.60;99.90
25716;DHT22;13573;50.936;4.328;2023-06-22T09:47:37;24.70;99.90
25716;DHT22;13573;50.936;4.328;2023-06-22T09:50:05;24.10;99.90
25716;DHT22;13573;50.936;4.328;2023-06-22T09:52:31;24.20;99.90
25716;DHT22;13573;50.936;4.328;2023-06-22T09:54:58;23.80;99.90
25716;DHT22;13573;50.936;4.328;2023-06-22T09:57:25;23.80;99.90
25716;DHT22;13573;50.936;4.328;2023-06-22T09:59:51;23.20;99.90
25716;DHT22;13573;50.936;4.328;2023-06-22T10:02:18;23.30;99.90
25716;DHT22;13573;50.936;4.328;2023-06-22T10:04:44;23.10;99.90
25716;DHT22;13573;50.936;4.328;2023-06-22T10:07:11;22.60;99.90
25716;DHT22;13573;50.936;4.328;2023-06-22T10:09:38;21.60;99.90
25716;DHT22;13573;50.936;4.328;2023-06-22T10:12:04;22.70;99.90
25716;DHT22;13573;50.936;4.328;2023-06-22T10:14:31;21.20;99.90
25716;DHT22;13573;50.936;4.328;2023-06-22T10:16:58;21.30;99.90
25716;DHT22;13573;50.936;4.328;2023-06-22T10:19:25;21.40;99.90
25716;DHT22;13573;50.936;4.328;2023-06-22T10:21:51;21.30;99.90
25716;DHT22;13573;50.936;4.328;2023-06-22T10:24:18;21.00;99.90
25716;DHT22;13573;50.936;4.328;2023-06-22T10:26:45;20.50;99.90
25716;DHT22;13573;50.936;4.328;2023-06-22T10:29:12;20.50;99.90
25716;DHT22;13573;50.936;4.328;2023-06-22T10:31:38;20.50;99.90
25716;DHT22;13573;50.936;4.328;2023-06-22T10:34:05;20.80;99.90
25716;DHT22;13573;50.936;4.328;2023-06-22T10:36:31;21.00;99.90
25716;DHT22;13573;50.936;4.328;2023-06-22T10:38:58;21.10;99.90
25716;DHT22;13573;50.936;4.328;2023-06-22T10:41:27;22.10;99.90
25716;DHT22;13573;50.936;4.328;2023-06-22T10:43:56;21.20;99.90
25716;DHT22;13573;50.936;4.328;2023-06-22T10:46:24;21.30;99.90
25716;DHT22;13573;50.936;4.328;2023-06-22T10:48:53;21.60;99.90
25716;DHT22;13573;50.936;4.328;2023-06-22T10:51:22;21.60;99.90
25716;DHT22;13573;50.936;4.328;2023-06-22T10:53:49;21.80;99.90
25716;DHT22;13573;50.936;4.328;2023-06-22T10:56:17;21.90;99.90
25716;DHT22;13573;50.936;4.328;2023-06-22T10:58:45;21.80;99.90
25716;DHT22;13573;50.936;4.328;2023-06-22T11:01:12;21.90;99.90
25716;DHT22;13573;50.936;4.328;2023-06-22T11:03:39;21.80;99.90
25716;DHT22;13573;50.936;4.328;2023-06-22T11:06:05;22.00;99.90
25716;DHT22;13573;50.936;4.328;2023-06-22T11:08:32;22.00;99.90
25716;DHT22;13573;50.936;4.328;2023-06-22T11:10:59;22.10;99.90
25716;DHT22;13573;50.936;4.328;2023-06-22T11:13:25;22.00;99.90
25716;DHT22;13573;50.936;4.328;2023-06-22T11:15:52;22.00;99.90
25716;DHT22;13573;50.936;4.328;2023-06-22T11:18:18;22.40;99.90
25716;DHT22;13573;50.936;4.328;2023-06-22T11:20:45;22.40;99.90
25716;DHT22;13573;50.936;4.328;2023-06-22T11:23:13;22.40;99.90
25716;DHT22;13573;50.936;4.328;2023-06-22T11:25:40;22.30;99.90
25716;DHT22;13573;50.936;4.328;2023-06-22T11:28:09;22.30;99.90
25716;DHT22;13573;50.936;4.328;2023-06-22T11:30:35;22.70;99.90
25716;DHT22;13573;50.936;4.328;2023-06-22T11:33:02;22.70;99.90
25716;DHT22;13573;50.936;4.328;2023-06-22T11:35:29;22.70;99.90
25716;DHT22;13573;50.936;4.328;2023-06-22T11:37:57;22.10;99.90
25716;DHT22;13573;50.936;4.328;2023-06-22T11:40:24;22.60;99.90
25716;DHT22;13573;50.936;4.328;2023-06-22T11:42:51;22.50;99.90
25716;DHT22;13573;50.936;4.328;2023-06-22T11:45:18;22.50;99.90
25716;DHT22;13573;50.936;4.328;2023-06-22T11:47:44;22.90;99.90
25716;DHT22;13573;50.936;4.328;2023-06-22T11:50:11;22.70;99.90
25716;DHT22;13573;50.936;4.328;2023-06-22T11:52:38;22.60;99.90
25716;DHT22;13573;50.936;4.328;2023-06-22T11:55:05;22.60;99.90
25716;DHT22;13573;50.936;4.328;2023-06-22T11:57:35;22.50;99.90
25716;DHT22;13573;50.936;4.328;2023-06-22T12:00:04;22.60;99.90
25716;DHT22;13573;50.936;4.328;2023-06-22T12:02:44;22.70;99.90
25716;DHT22;13573;50.936;4.328;2023-06-22T12:05:11;22.70;99.90
25716;DHT22;13573;50.936;4.328;2023-06-22T12:07:40;22.90;99.90
25716;DHT22;13573;50.936;4.328;2023-06-22T12:10:07;23.10;99.90
25716;DHT22;13573;50.936;4.328;2023-06-22T12:12:34;23.00;99.90
25716;DHT22;13573;50.936;4.328;2023-06-22T12:15:01;22.90;99.90
25716;DHT22;13573;50.936;4.328;2023-06-22T12:17:30;22.80;99.90
25716;DHT22;13573;50.936;4.328;2023-06-22T12:19:56;22.40;99.90
25716;DHT22;13573;50.936;4.328;2023-06-22T12:22:23;22.40;99.90
25716;DHT22;13573;50.936;4.328;2023-06-22T12:24:50;22.40;99.90
25716;DHT22;13573;50.936;4.328;2023-06-22T12:27:17;22.20;99.90
25716;DHT22;13573;50.936;4.328;2023-06-22T12:29:46;22.20;99.90
25716;DHT22;13573;50.936;4.328;2023-06-22T12:32:13;22.10;99.90
25716;DHT22;13573;50.936;4.328;2023-06-22T12:34:42;22.30;99.90
25716;DHT22;13573;50.936;4.328;2023-06-22T12:37:09;22.30;99.90
25716;DHT22;13573;50.936;4.328;2023-06-22T12:39:36;22.40;99.90
25716;DHT22;13573;50.936;4.328;2023-06-22T12:42:03;22.50;99.90
25716;DHT22;13573;50.936;4.328;2023-06-22T12:44:29;22.70;99.90
25716;DHT22;13573;50.936;4.328;2023-06-22T12:46:56;22.70;99.90
25716;DHT22;13573;50.936;4.328;2023-06-22T12:49:23;22.80;99.90
25716;DHT22;13573;50.936;4.328;2023-06-22T12:51:50;22.90;99.90
25716;DHT22;13573;50.936;4.328;2023-06-22T12:54:16;23.00;99.90
25716;DHT22;13573;50.936;4.328;2023-06-22T12:56:43;22.80;99.90
25716;DHT22;13573;50.936;4.328;2023-06-22T12:59:11;23.10;99.90
25716;DHT22;13573;50.936;4.328;2023-06-22T13:01:37;23.10;99.90
25716;DHT22;13573;50.936;4.328;2023-06-22T13:04:04;23.10;99.90
25716;DHT22;13573;50.936;4.328;2023-06-22T13:06:31;22.80;99.90
25716;DHT22;13573;50.936;4.328;2023-06-22T13:08:58;23.20;99.90
25716;DHT22;13573;50.936;4.328;2023-06-22T13:11:24;23.10;99.90
25716;DHT22;13573;50.936;4.328;2023-06-22T13:13:51;23.10;99.90
25716;DHT22;13573;50.936;4.328;2023-06-22T13:16:17;23.00;99.90
25716;DHT22;13573;50.936;4.328;2023-06-22T13:18:48;23.00;99.90
25716;DHT22;13573;50.936;4.328;2023-06-22T13:21:14;23.40;99.90
25716;DHT22;13573;50.936;4.328;2023-06-22T13:23:41;22.90;99.90
25716;DHT22;13573;50.936;4.328;2023-06-22T13:26:08;22.70;99.90
25716;DHT22;13573;50.936;4.328;2023-06-22T13:28:34;22.70;99.90
25716;DHT22;13573;50.936;4.328;2023-06-22T13:31:01;22.60;99.90
25716;DHT22;13573;50.936;4.328;2023-06-22T13:33:27;22.50;99.90
25716;DHT22;13573;50.936;4.328;2023-06-22T13:35:54;22.30;99.90
25716;DHT22;13573;50.936;4.328;2023-06-22T13:38:21;22.50;99.90
25716;DHT22;13573;50.936;4.328;2023-06-22T13:40:48;22.40;99.90
25716;DHT22;13573;50.936;4.328;2023-06-22T13:43:16;22.10;99.90
25716;DHT22;13573;50.936;4.328;2023-06-22T13:45:43;22.20;99.90
25716;DHT22;13573;50.936;4.328;2023-06-22T13:48:10;22.20;99.90
25716;DHT22;13573;50.936;4.328;2023-06-22T13:50:36;22.10;99.90
25716;DHT22;13573;50.936;4.328;2023-06-22T13:53:03;22.20;99.90
25716;DHT22;13573;50.936;4.328;2023-06-22T13:55:30;22.20;99.90
25716;DHT22;13573;50.936;4.328;2023-06-22T13:57:57;22.30;99.90
25716;DHT22;13573;50.936;4.328;2023-06-22T14:00:23;22.10;99.90
25716;DHT22;13573;50.936;4.328;2023-06-22T14:02:50;22.20;99.90
25716;DHT22;13573;50.936;4.328;2023-06-22T14:05:17;22.10;99.90
25716;DHT22;13573;50.936;4.328;2023-06-22T14:07:44;21.90;99.90
25716;DHT22;13573;50.936;4.328;2023-06-22T14:10:12;22.10;99.90
25716;DHT22;13573;50.936;4.328;2023-06-22T14:12:38;22.00;99.90
25716;DHT22;13573;50.936;4.328;2023-06-22T14:15:06;22.00;99.90
25716;DHT22;13573;50.936;4.328;2023-06-22T14:17:33;22.00;99.90
25716;DHT22;13573;50.936;4.328;2023-06-22T14:20:00;21.80;99.90
25716;DHT22;13573;50.936;4.328;2023-06-22T14:22:26;21.90;99.90
25716;DHT22;13573;50.936;4.328;2023-06-22T14:24:55;21.60;99.90
25716;DHT22;13573;50.936;4.328;2023-06-22T14:27:25;21.70;99.90
25716;DHT22;13573;50.936;4.328;2023-06-22T14:29:51;21.60;99.90
25716;DHT22;13573;50.936;4.328;2023-06-22T14:32:18;21.30;99.90
25716;DHT22;13573;50.936;4.328;2023-06-22T14:34:45;21.80;99.90
25716;DHT22;13573;50.936;4.328;2023-06-22T14:37:11;21.80;99.90
25716;DHT22;13573;50.936;4.328;2023-06-22T14:39:39;21.80;99.90
25716;DHT22;13573;50.936;4.328;2023-06-22T14:42:06;21.90;99.90
25716;DHT22;13573;50.936;4.328;2023-06-22T14:44:33;21.80;99.90
25716;DHT22;13573;50.936;4.328;2023-06-22T14:46:59;21.70;99.90
25716;DHT22;13573;50.936;4.328;2023-06-22T14:49:26;21.80;99.90
25716;DHT22;13573;50.936;4.328;2023-06-22T14:51:53;21.50;99.90
25716;DHT22;13573;50.936;4.328;2023-06-22T14:54:19;21.10;99.90
25716;DHT22;13573;50.936;4.328;2023-06-22T14:56:47;20.90;99.90
25716;DHT22;13573;50.936;4.328;2023-06-22T14:59:14;20.70;99.90
25716;DHT22;13573;50.936;4.328;2023-06-22T15:01:41;20.60;99.90
25716;DHT22;13573;50.936;4.328;2023-06-22T15:04:07;20.70;99.90
25716;DHT22;13573;50.936;4.328;2023-06-22T15:06:34;20.40;99.90
25716;DHT22;13573;50.936;4.328;2023-06-22T15:09:00;20.40;99.90
25716;DHT22;13573;50.936;4.328;2023-06-22T15:11:27;20.40;99.90
25716;DHT22;13573;50.936;4.328;2023-06-22T15:13:54;20.70;99.90
25716;DHT22;13573;50.936;4.328;2023-06-22T15:16:20;20.50;99.90
25716;DHT22;13573;50.936;4.328;2023-06-22T15:18:49;20.40;99.90
25716;DHT22;13573;50.936;4.328;2023-06-22T15:21:16;20.40;99.90
25716;DHT22;13573;50.936;4.328;2023-06-22T15:23:42;20.60;99.90
25716;DHT22;13573;50.936;4.328;2023-06-22T15:26:09;20.60;99.90
25716;DHT22;13573;50.936;4.328;2023-06-22T15:28:36;20.40;99.90
25716;DHT22;13573;50.936;4.328;2023-06-22T15:31:04;20.60;99.90
25716;DHT22;13573;50.936;4.328;2023-06-22T15:33:30;20.60;99.90
25716;DHT22;13573;50.936;4.328;2023-06-22T15:35:58;20.70;99.90